createdAt,value
2019-03-11T00:00:34.465Z,2.60
2019-03-11T00:03:02.486Z,2.60
2019-03-11T00:05:30.475Z,2.50
2019-03-11T00:08:03.918Z,2.60
2019-03-11T00:10:31.912Z,2.70
2019-03-11T00:12:59.815Z,2.60
2019-03-11T00:15:28.833Z,2.40
2019-03-11T00:17:57.068Z,2.40
2019-03-11T00:20:25.043Z,2.50
2019-03-11T00:22:53.032Z,2.50
2019-03-11T00:25:25.063Z,2.60
2019-03-11T00:27:53.044Z,2.60
2019-03-11T00:30:20.972Z,2.50
2019-03-11T00:32:48.967Z,2.30
2019-03-11T00:35:16.912Z,2.10
2019-03-11T00:37:45.102Z,2.00
2019-03-11T00:40:16.169Z,1.90
2019-03-11T00:42:44.122Z,2.20
2019-03-11T00:45:15.168Z,2.50
2019-03-11T00:47:46.062Z,2.60
2019-03-11T00:50:17.115Z,2.50
2019-03-11T00:52:48.083Z,2.50
2019-03-11T00:55:16.080Z,2.60
2019-03-11T00:57:46.740Z,2.60
2019-03-11T01:00:18.550Z,2.60
2019-03-11T01:02:46.444Z,2.80
2019-03-11T01:05:14.502Z,2.90
2019-03-11T01:07:42.388Z,2.90
2019-03-11T01:10:10.391Z,3.00
2019-03-11T01:12:38.344Z,3.10
2019-03-11T01:15:06.373Z,3.10
2019-03-11T01:17:34.246Z,3.10
2019-03-11T01:20:02.161Z,3.20
2019-03-11T01:22:30.132Z,3.30
2019-03-11T01:24:58.282Z,3.30
2019-03-11T01:27:26.161Z,3.30
2019-03-11T01:29:54.321Z,3.40
2019-03-11T01:32:25.196Z,3.40
2019-03-11T01:34:55.860Z,3.50
2019-03-11T01:37:27.077Z,3.50
2019-03-11T01:39:54.969Z,3.50
2019-03-11T01:42:23.116Z,3.60
2019-03-11T01:44:51.041Z,3.50
2019-03-11T01:47:18.945Z,3.60
2019-03-11T01:49:49.761Z,3.70
2019-03-11T01:52:17.981Z,3.60
2019-03-11T01:54:45.956Z,3.70
2019-03-11T01:57:14.202Z,3.50
2019-03-11T01:59:42.159Z,3.40
2019-03-11T02:02:10.145Z,3.40
2019-03-11T02:04:38.108Z,3.40
2019-03-11T02:07:06.016Z,3.40
2019-03-11T02:09:37.130Z,3.50
2019-03-11T02:12:08.068Z,3.40
2019-03-11T02:14:35.932Z,3.40
2019-03-11T02:17:03.900Z,3.40
2019-03-11T02:19:35.029Z,3.40
2019-03-11T02:22:05.668Z,3.40
2019-03-11T02:24:33.554Z,3.30
2019-03-11T02:27:01.449Z,3.30
2019-03-11T02:29:30.583Z,3.30
2019-03-11T02:31:58.520Z,3.40
2019-03-11T02:34:26.477Z,3.50
2019-03-11T02:36:54.372Z,3.50
2019-03-11T02:39:22.337Z,3.50
2019-03-11T02:41:50.250Z,3.60
2019-03-11T02:44:18.130Z,3.60
2019-03-11T02:46:46.044Z,3.70
2019-03-11T02:49:14.238Z,3.60
2019-03-11T02:51:42.145Z,3.70
2019-03-11T02:54:10.028Z,3.60
2019-03-11T02:56:40.743Z,3.70
2019-03-11T02:59:17.839Z,3.70
2019-03-11T03:02:10.998Z,3.90
2019-03-11T03:04:42.360Z,4.00
2019-03-11T03:07:10.218Z,4.00
2019-03-11T03:09:38.121Z,4.00
2019-03-11T03:12:08.869Z,3.90
2019-03-11T03:14:39.861Z,3.90
2019-03-11T03:17:07.816Z,3.90
2019-03-11T03:19:35.836Z,3.90
2019-03-11T03:22:10.176Z,4.00
2019-03-11T03:24:41.027Z,4.10
2019-03-11T03:27:08.976Z,4.10
2019-03-11T03:29:39.930Z,3.50
2019-03-11T03:32:07.810Z,3.20
2019-03-11T03:34:41.201Z,3.10
2019-03-11T03:37:09.173Z,2.90
2019-03-11T03:39:45.905Z,2.80
2019-03-11T03:42:14.021Z,2.80
2019-03-11T03:44:48.774Z,2.70
2019-03-11T03:47:17.353Z,2.70
2019-03-11T03:49:45.242Z,2.50
2019-03-11T03:52:13.199Z,2.60
2019-03-11T03:54:41.090Z,2.50
2019-03-11T03:57:12.273Z,2.50
2019-03-11T03:59:40.165Z,2.40
2019-03-11T04:02:08.056Z,2.40
2019-03-11T04:04:38.782Z,2.30
2019-03-11T04:07:06.690Z,2.40
2019-03-11T04:09:34.565Z,2.40
2019-03-11T04:12:02.454Z,2.40
2019-03-11T04:14:33.359Z,2.40
2019-03-11T04:17:07.384Z,2.30
2019-03-11T04:19:35.322Z,2.30
2019-03-11T04:22:03.305Z,2.30
2019-03-11T04:24:31.264Z,2.30
2019-03-11T04:27:00.924Z,2.20
2019-03-11T04:29:28.853Z,2.20
2019-03-11T04:31:56.796Z,2.20
2019-03-11T04:34:24.838Z,2.20
2019-03-11T04:36:52.745Z,2.20
2019-03-11T04:39:20.665Z,2.20
2019-03-11T04:41:48.792Z,2.20
2019-03-11T04:44:16.701Z,2.20
2019-03-11T04:46:53.437Z,2.20
2019-03-11T04:49:21.344Z,2.20
2019-03-11T04:51:52.312Z,2.20
2019-03-11T04:54:20.269Z,2.20
2019-03-11T04:56:48.415Z,2.10
2019-03-11T04:59:19.069Z,2.00
2019-03-11T05:01:47.024Z,2.00
2019-03-11T05:04:17.671Z,1.60
2019-03-11T05:06:45.852Z,1.30
2019-03-11T05:09:16.489Z,1.20
2019-03-11T05:11:44.409Z,1.20
2019-03-11T05:14:12.373Z,1.20
2019-03-11T05:16:40.321Z,1.30
2019-03-11T05:19:08.449Z,1.30
2019-03-11T05:21:36.368Z,1.40
2019-03-11T05:24:04.361Z,1.40
2019-03-11T05:26:35.352Z,1.40
2019-03-11T05:29:03.590Z,1.40
2019-03-11T05:31:34.241Z,1.50
2019-03-11T05:34:02.190Z,1.40
2019-03-11T05:36:35.896Z,1.40
2019-03-11T05:39:04.885Z,1.40
2019-03-11T05:41:32.759Z,1.50
2019-03-11T05:44:06.166Z,1.50
2019-03-11T05:46:34.161Z,1.50
2019-03-11T05:49:02.091Z,1.50
2019-03-11T05:51:31.761Z,1.40
2019-03-11T05:53:59.574Z,1.20
2019-03-11T05:56:27.501Z,1.00
2019-03-11T05:58:55.394Z,1.00
2019-03-11T06:01:24.720Z,0.90
2019-03-11T06:03:55.406Z,0.90
2019-03-11T06:06:26.112Z,0.80
2019-03-11T06:08:54.085Z,0.80
2019-03-11T06:11:22.784Z,0.80
2019-03-11T06:13:50.912Z,0.80
2019-03-11T06:16:18.786Z,0.80
2019-03-11T06:18:51.234Z,0.80
2019-03-11T06:21:35.596Z,0.80
2019-03-11T06:24:06.745Z,0.90
2019-03-11T06:26:34.715Z,0.90
2019-03-11T06:29:03.548Z,0.90
2019-03-11T06:31:34.512Z,0.80
2019-03-11T06:34:02.481Z,0.90
2019-03-11T06:36:30.605Z,0.80
2019-03-11T06:39:05.696Z,0.80
2019-03-11T06:41:30.818Z,0.80
2019-03-11T06:44:01.490Z,0.80
2019-03-11T06:46:29.366Z,0.90
2019-03-11T06:49:00.142Z,0.90
2019-03-11T06:51:28.347Z,1.00
2019-03-11T06:53:56.225Z,1.00
2019-03-11T06:56:24.128Z,1.20
2019-03-11T06:58:52.011Z,1.30
2019-03-11T07:01:23.127Z,1.40
2019-03-11T07:03:51.242Z,1.50
2019-03-11T07:06:19.137Z,1.50
2019-03-11T07:08:47.008Z,1.60
2019-03-11T07:11:14.964Z,1.80
2019-03-11T07:13:42.862Z,1.90
2019-03-11T07:16:10.837Z,2.00
2019-03-11T07:18:41.565Z,2.00
2019-03-11T07:21:09.665Z,2.00
2019-03-11T07:23:37.654Z,2.00
2019-03-11T07:26:08.617Z,2.10
2019-03-11T07:28:37.757Z,2.20
2019-03-11T07:31:08.456Z,2.30
2019-03-11T07:33:36.422Z,2.40
2019-03-11T07:36:04.381Z,2.50
2019-03-11T07:38:32.351Z,2.60
2019-03-11T07:41:00.300Z,2.90
2019-03-11T07:43:31.312Z,3.10
2019-03-11T07:45:59.322Z,3.20
2019-03-11T07:48:27.212Z,3.30
2019-03-11T07:50:55.092Z,3.40
2019-03-11T07:53:23.081Z,3.60
2019-03-11T07:55:57.057Z,3.70
2019-03-11T07:58:24.957Z,3.60
2019-03-11T08:00:54.099Z,3.70
2019-03-11T08:03:22.203Z,3.90
2019-03-11T08:05:53.170Z,3.90
2019-03-11T08:08:21.369Z,4.00
2019-03-11T08:10:49.265Z,3.90
2019-03-11T08:13:17.147Z,3.70
2019-03-11T08:15:54.037Z,3.60
2019-03-11T08:18:34.455Z,3.60
2019-03-11T08:20:57.819Z,3.70
2019-03-11T08:23:25.721Z,3.80
2019-03-11T08:25:53.616Z,3.90
2019-03-11T08:28:21.522Z,4.00
2019-03-11T08:30:52.509Z,4.20
2019-03-11T08:33:20.428Z,4.40
2019-03-11T08:35:51.457Z,4.40
2019-03-11T08:38:19.477Z,4.50
2019-03-11T08:40:56.113Z,4.70
2019-03-11T08:43:24.041Z,4.90
2019-03-11T08:45:54.777Z,5.10
2019-03-11T08:48:22.746Z,5.10
2019-03-11T08:50:50.743Z,5.30
2019-03-11T08:53:18.718Z,5.10
2019-03-11T08:55:46.703Z,4.80
2019-03-11T08:58:14.601Z,4.60
2019-03-11T09:00:51.638Z,4.40
2019-03-11T09:03:19.658Z,4.00
2019-03-11T09:05:49.036Z,3.90
2019-03-11T09:08:16.954Z,3.80
2019-03-11T09:10:44.821Z,3.80
2019-03-11T09:13:12.692Z,3.80
2019-03-11T09:15:40.668Z,3.70
2019-03-11T09:18:08.859Z,3.50
2019-03-11T09:20:36.864Z,3.30
2019-03-11T09:23:04.858Z,3.20
2019-03-11T09:25:35.650Z,2.90
2019-03-11T09:28:03.633Z,2.70
2019-03-11T09:30:31.541Z,2.60
2019-03-11T09:33:02.552Z,2.40
2019-03-11T09:35:30.510Z,2.40
2019-03-11T09:37:58.416Z,2.50
2019-03-11T09:40:26.307Z,2.70
2019-03-11T09:42:54.449Z,2.80
2019-03-11T09:45:24.244Z,3.00
2019-03-11T09:47:55.033Z,3.10
2019-03-11T09:50:22.933Z,3.40
2019-03-11T09:52:50.892Z,3.50
2019-03-11T09:55:18.899Z,3.70
2019-03-11T09:57:46.872Z,3.90
2019-03-11T10:00:18.906Z,3.80
2019-03-11T10:02:52.334Z,3.80
2019-03-11T10:05:16.626Z,3.80
2019-03-11T10:07:47.732Z,3.90
2019-03-11T10:10:16.026Z,4.10
2019-03-11T10:12:43.911Z,4.10
2019-03-11T10:15:12.764Z,4.40
2019-03-11T10:17:40.735Z,4.50
2019-03-11T10:20:09.034Z,4.60
2019-03-11T10:22:37.745Z,4.30
2019-03-11T10:25:06.077Z,4.40
2019-03-11T10:27:34.022Z,4.50
2019-03-11T10:30:02.240Z,4.40
2019-03-11T10:32:33.442Z,4.30
2019-03-11T10:35:04.449Z,4.10
2019-03-11T10:37:35.807Z,4.10
2019-03-11T10:40:06.483Z,4.30
2019-03-11T10:42:34.475Z,4.50
2019-03-11T10:45:02.450Z,4.40
2019-03-11T10:47:33.589Z,4.30
2019-03-11T10:50:01.639Z,4.40
2019-03-11T10:52:35.565Z,4.50
2019-03-11T10:55:03.681Z,4.60
2019-03-11T10:57:34.743Z,4.60
2019-03-11T11:00:07.394Z,4.40
2019-03-11T11:02:35.799Z,4.50
2019-03-11T11:05:06.601Z,4.70
2019-03-11T11:07:34.573Z,4.50
2019-03-11T11:10:02.988Z,4.60
2019-03-11T11:12:32.741Z,4.60
2019-03-11T11:15:03.697Z,4.60
2019-03-11T11:17:31.613Z,4.80
2019-03-11T11:20:03.526Z,4.90
2019-03-11T11:22:32.357Z,5.00
2019-03-11T11:25:00.398Z,5.10
2019-03-11T11:27:28.400Z,5.30
2019-03-11T11:29:56.369Z,5.20
2019-03-11T11:32:30.418Z,5.10
2019-03-11T11:34:58.374Z,5.20
2019-03-11T11:37:26.321Z,5.30
2019-03-11T11:39:54.246Z,5.40
2019-03-11T11:42:22.216Z,5.50
2019-03-11T11:44:50.442Z,5.70
2019-03-11T11:47:18.325Z,6.00
2019-03-11T11:49:46.262Z,6.00
2019-03-11T11:52:14.164Z,6.20
2019-03-11T11:54:42.150Z,6.40
2019-03-11T11:57:10.030Z,6.40
2019-03-11T11:59:54.014Z,6.50
2019-03-11T12:02:16.854Z,6.30
2019-03-11T12:04:44.751Z,6.30
2019-03-11T12:07:12.665Z,6.20
2019-03-11T12:09:40.823Z,6.20
2019-03-11T12:12:08.788Z,6.40
2019-03-11T12:14:36.773Z,6.30
2019-03-11T12:17:04.960Z,6.50
2019-03-11T12:19:36.373Z,6.90
2019-03-11T12:22:04.769Z,7.50
2019-03-11T12:24:35.506Z,7.40
2019-03-11T12:27:03.593Z,7.60
2019-03-11T12:29:32.013Z,7.60
2019-03-11T12:32:03.073Z,8.00
2019-03-11T12:34:31.212Z,8.40
2019-03-11T12:37:01.933Z,8.30
2019-03-11T12:39:29.925Z,8.30
2019-03-11T12:42:00.938Z,8.50
2019-03-11T12:44:28.866Z,8.70
2019-03-11T12:46:56.824Z,8.60
2019-03-11T12:49:24.949Z,8.50
2019-03-11T12:51:52.887Z,8.00
2019-03-11T12:54:23.613Z,8.30
2019-03-11T12:56:51.738Z,8.60
2019-03-11T12:59:22.856Z,8.60
2019-03-11T13:01:53.863Z,9.10
2019-03-11T13:04:24.404Z,8.50
2019-03-11T13:06:52.580Z,8.40
2019-03-11T13:09:25.144Z,8.50
2019-03-11T13:11:55.922Z,8.60
2019-03-11T13:14:26.911Z,9.10
2019-03-11T13:16:54.953Z,9.10
2019-03-11T13:19:22.924Z,10.00
2019-03-11T13:21:51.769Z,9.50
2019-03-11T13:24:20.092Z,9.70
2019-03-11T13:26:48.240Z,10.00
2019-03-11T13:29:19.592Z,10.80
2019-03-11T13:31:48.089Z,10.20
2019-03-11T13:34:15.971Z,9.40
2019-03-11T13:36:44.121Z,9.00
2019-03-11T13:39:12.348Z,9.10
2019-03-11T13:41:40.555Z,9.50
2019-03-11T13:44:08.616Z,10.30
2019-03-11T13:46:36.677Z,10.10
2019-03-11T13:49:05.029Z,10.50
2019-03-11T13:51:33.259Z,10.20
2019-03-11T13:54:01.400Z,11.00
2019-03-11T13:56:29.757Z,11.00
2019-03-11T13:58:57.959Z,10.60
2019-03-11T14:01:25.921Z,9.80
2019-03-11T14:03:56.847Z,9.60
2019-03-11T14:06:24.847Z,10.50
2019-03-11T14:08:52.722Z,10.70
2019-03-11T14:11:20.966Z,10.00
2019-03-11T14:13:49.220Z,9.90
2019-03-11T14:16:19.948Z,9.80
2019-03-11T14:18:48.108Z,9.10
2019-03-11T14:21:25.284Z,10.10
2019-03-11T14:23:46.289Z,10.60
2019-03-11T14:26:14.235Z,10.70
2019-03-11T14:28:48.337Z,10.90
2019-03-11T14:31:16.316Z,10.80
2019-03-11T14:33:44.203Z,11.50
2019-03-11T14:36:12.094Z,11.30
2019-03-11T14:38:40.012Z,10.20
2019-03-11T14:41:09.458Z,10.90
2019-03-11T14:43:43.253Z,10.60
2019-03-11T14:46:14.246Z,10.30
2019-03-11T14:48:45.284Z,9.90
2019-03-11T14:51:13.190Z,10.10
2019-03-11T14:53:41.381Z,10.70
2019-03-11T14:56:14.288Z,9.00
2019-03-11T14:58:39.738Z,7.80
2019-03-11T15:01:10.764Z,6.40
2019-03-11T15:03:39.002Z,5.80
2019-03-11T15:06:13.354Z,5.40
2019-03-11T15:08:46.921Z,5.20
2019-03-11T15:11:20.707Z,4.90
2019-03-11T15:13:48.852Z,4.70
2019-03-11T15:16:17.635Z,4.60
2019-03-11T15:18:46.728Z,4.70
2019-03-11T15:21:16.109Z,5.50
2019-03-11T15:23:44.057Z,6.40
2019-03-11T15:26:13.336Z,6.50
2019-03-11T15:28:41.900Z,6.50
2019-03-11T15:31:11.053Z,6.90
2019-03-11T15:33:39.578Z,7.40
2019-03-11T15:36:07.554Z,7.50
2019-03-11T15:38:35.697Z,7.90
2019-03-11T15:41:04.336Z,7.90
2019-03-11T15:43:33.235Z,7.00
2019-03-11T15:46:01.463Z,6.70
2019-03-11T15:48:31.877Z,6.40
2019-03-11T15:50:59.802Z,6.00
2019-03-11T15:53:28.325Z,5.30
2019-03-11T15:55:56.325Z,5.00
2019-03-11T15:58:24.217Z,5.00
2019-03-11T16:00:52.378Z,5.40
2019-03-11T16:03:20.337Z,5.30
2019-03-11T16:05:50.020Z,5.30
2019-03-11T16:08:18.854Z,5.40
2019-03-11T16:10:49.637Z,5.60
2019-03-11T16:13:18.825Z,6.00
2019-03-11T16:15:50.700Z,6.50
2019-03-11T16:18:19.326Z,6.90
2019-03-11T16:20:50.261Z,7.20
2019-03-11T16:23:19.269Z,7.50
2019-03-11T16:25:47.542Z,7.80
2019-03-11T16:28:15.720Z,7.40
2019-03-11T16:30:43.614Z,7.20
2019-03-11T16:33:14.339Z,6.60
2019-03-11T16:35:45.571Z,6.50
2019-03-11T16:38:13.460Z,6.70
2019-03-11T16:40:41.534Z,7.20
2019-03-11T16:43:10.473Z,7.00
2019-03-11T16:45:39.285Z,7.00
2019-03-11T16:48:10.005Z,6.30
2019-03-11T16:50:38.511Z,5.70
2019-03-11T16:53:06.724Z,5.50
2019-03-11T16:55:36.354Z,5.40
2019-03-11T16:58:07.493Z,5.30
2019-03-11T17:00:40.359Z,5.20
2019-03-11T17:03:08.520Z,5.20
2019-03-11T17:05:39.526Z,5.10
2019-03-11T17:08:10.078Z,5.10
2019-03-11T17:10:37.977Z,5.20
2019-03-11T17:13:05.923Z,5.20
2019-03-11T17:15:34.462Z,5.20
2019-03-11T17:18:03.601Z,5.20
2019-03-11T17:20:32.436Z,5.20
2019-03-11T17:23:01.582Z,5.20
2019-03-11T17:25:36.184Z,5.20
2019-03-11T17:28:04.260Z,5.20
2019-03-11T17:30:36.428Z,5.10
2019-03-11T17:33:04.525Z,5.10
2019-03-11T17:35:33.270Z,5.10
2019-03-11T17:38:02.917Z,5.10
2019-03-11T17:40:30.873Z,5.10
2019-03-11T17:43:01.924Z,5.10
2019-03-11T17:45:30.231Z,5.10
2019-03-11T17:47:58.579Z,5.10
2019-03-11T17:50:32.502Z,5.10
2019-03-11T17:53:04.826Z,5.00
2019-03-11T17:55:30.514Z,5.00
2019-03-11T17:58:01.791Z,5.00
2019-03-11T18:00:31.149Z,5.00
2019-03-11T18:02:59.045Z,5.00
2019-03-11T18:05:29.558Z,5.00
2019-03-11T18:07:58.325Z,4.90
2019-03-11T18:10:26.870Z,5.00
2019-03-11T18:12:58.683Z,4.90
2019-03-11T18:15:30.012Z,5.00
2019-03-11T18:17:58.905Z,5.00
2019-03-11T18:20:30.908Z,5.00
2019-03-11T18:23:05.248Z,4.90
2019-03-11T18:25:33.981Z,4.90
2019-03-11T18:28:02.214Z,5.00
2019-03-11T18:30:30.389Z,4.90
2019-03-11T18:32:58.609Z,4.90
2019-03-11T18:35:26.556Z,4.90
2019-03-11T18:38:03.387Z,4.90
2019-03-11T18:40:24.275Z,4.90
2019-03-11T18:42:52.295Z,5.00
2019-03-11T18:45:23.117Z,4.90
2019-03-11T18:47:51.318Z,4.90
2019-03-11T18:50:19.411Z,4.90
2019-03-11T18:52:47.750Z,4.90
2019-03-11T18:55:15.940Z,4.80
2019-03-11T18:57:44.524Z,4.80
2019-03-11T19:00:16.333Z,4.80
2019-03-11T19:02:44.659Z,4.80
2019-03-11T19:05:13.727Z,4.80
2019-03-11T19:07:42.399Z,4.80
2019-03-11T19:10:10.565Z,5.00
2019-03-11T19:12:44.299Z,4.90
2019-03-11T19:15:13.067Z,4.80
2019-03-11T19:17:43.900Z,4.60
2019-03-11T19:20:12.993Z,4.70
2019-03-11T19:22:40.982Z,4.60
2019-03-11T19:25:11.774Z,4.60
2019-03-11T19:27:42.800Z,4.60
2019-03-11T19:30:12.177Z,4.60
2019-03-11T19:32:40.064Z,4.60
2019-03-11T19:35:08.594Z,4.60
2019-03-11T19:37:36.675Z,4.60
2019-03-11T19:40:08.633Z,4.60
2019-03-11T19:42:36.909Z,4.60
2019-03-11T19:45:08.570Z,4.60
2019-03-11T19:47:37.234Z,4.60
2019-03-11T19:50:08.256Z,4.60
2019-03-11T19:52:36.644Z,4.60
2019-03-11T19:55:05.412Z,4.60
2019-03-11T19:57:36.941Z,4.70
2019-03-11T20:00:05.828Z,4.60
2019-03-11T20:02:33.905Z,4.60
2019-03-11T20:05:02.503Z,4.60
2019-03-11T20:07:30.810Z,4.60
2019-03-11T20:10:04.922Z,4.60
2019-03-11T20:12:33.168Z,4.60
2019-03-11T20:15:01.529Z,4.50
2019-03-11T20:17:29.555Z,4.50
2019-03-11T20:19:57.980Z,4.50
2019-03-11T20:22:25.971Z,4.50
2019-03-11T20:24:55.165Z,4.50
2019-03-11T20:27:23.285Z,4.60
2019-03-11T20:29:51.477Z,4.60
2019-03-11T20:32:19.374Z,4.60
2019-03-11T20:34:50.595Z,4.60
2019-03-11T20:37:18.978Z,4.60
2019-03-11T20:39:50.074Z,4.60
2019-03-11T20:42:18.498Z,4.50
2019-03-11T20:44:46.610Z,4.40
2019-03-11T20:47:14.978Z,4.40
2019-03-11T20:49:44.310Z,4.40
2019-03-11T20:52:12.831Z,4.40
2019-03-11T20:54:40.757Z,4.50
2019-03-11T20:57:09.458Z,4.50
2019-03-11T20:59:38.525Z,4.50
2019-03-11T21:02:06.888Z,4.50
2019-03-11T21:04:37.941Z,4.50
2019-03-11T21:07:06.227Z,4.50
2019-03-11T21:09:34.440Z,4.40
2019-03-11T21:12:02.369Z,4.40
2019-03-11T21:14:30.346Z,4.40
2019-03-11T21:16:58.453Z,4.50
2019-03-11T21:19:26.653Z,4.50
2019-03-11T21:21:58.497Z,4.50
2019-03-11T21:24:26.441Z,4.50
2019-03-11T21:26:54.845Z,4.50
2019-03-11T21:29:23.206Z,4.50
2019-03-11T21:31:51.225Z,4.40
2019-03-11T21:34:19.177Z,4.40
2019-03-11T21:36:50.500Z,4.50
2019-03-11T21:39:17.128Z,4.50
2019-03-11T21:41:48.108Z,4.50
2019-03-11T21:44:16.374Z,4.50
2019-03-11T21:46:44.401Z,4.40
2019-03-11T21:49:16.409Z,4.30
2019-03-11T21:51:42.171Z,4.30
2019-03-11T21:54:10.129Z,4.30
2019-03-11T21:56:40.986Z,4.30
2019-03-11T21:59:12.358Z,4.30
2019-03-11T22:01:40.269Z,4.20
2019-03-11T22:04:11.117Z,4.20
2019-03-11T22:06:48.219Z,4.10
2019-03-11T22:09:19.130Z,4.10
2019-03-11T22:11:47.104Z,4.10
2019-03-11T22:14:18.686Z,4.10
2019-03-11T22:16:46.657Z,4.10
2019-03-11T22:19:17.358Z,4.10
2019-03-11T22:21:45.274Z,4.10
2019-03-11T22:24:13.270Z,4.00
2019-03-11T22:26:41.160Z,4.00
2019-03-11T22:29:09.077Z,3.90
2019-03-11T22:31:40.049Z,4.00
2019-03-11T22:34:11.314Z,3.90
2019-03-11T22:36:39.201Z,3.90
2019-03-11T22:39:09.949Z,3.90
2019-03-11T22:41:38.064Z,3.90
2019-03-11T22:44:06.034Z,4.00
2019-03-11T22:46:33.928Z,4.00
2019-03-11T22:49:01.819Z,3.90
2019-03-11T22:51:29.712Z,3.90
2019-03-11T22:53:57.699Z,3.90
2019-03-11T22:56:25.633Z,3.90
2019-03-11T22:58:53.560Z,3.90
2019-03-11T23:01:21.708Z,3.70
2019-03-11T23:03:50.824Z,3.80
2019-03-11T23:06:21.561Z,3.60
2019-03-11T23:08:49.532Z,3.70
2019-03-11T23:11:17.556Z,3.70
2019-03-11T23:13:45.512Z,3.70
2019-03-11T23:16:13.497Z,3.70
2019-03-11T23:18:44.781Z,3.70
2019-03-11T23:21:12.729Z,3.70
2019-03-11T23:23:40.634Z,3.60
2019-03-11T23:26:08.536Z,3.60
2019-03-11T23:28:36.444Z,3.60
2019-03-11T23:31:04.633Z,3.50
2019-03-11T23:33:32.542Z,3.40
2019-03-11T23:36:03.492Z,3.40
2019-03-11T23:38:31.436Z,3.40
2019-03-11T23:41:05.656Z,3.40
2019-03-11T23:43:37.067Z,3.40
2019-03-11T23:46:05.068Z,3.30
2019-03-11T23:48:42.438Z,3.30
2019-03-11T23:51:10.352Z,3.30
2019-03-11T23:53:38.257Z,3.30
2019-03-11T23:56:06.340Z,3.30
2019-03-11T23:58:37.090Z,3.20
